Time;durP1;ratioP1;P1;durP2;ratioP2;P2;SDS_P1;SDS_P2;PMS_P1;PMS_P2;Temp;Humidity;BMP_temperature;BMP_pressure;BME280_temperature;BME280_humidity;BME280_pressure;Samples;Min_cycle;Max_cycle;Signal;HPM_P1;HPM_P2
2021/06/23 00:01:02;;;;;;;13.50;4.42;;;;;;;22.72;58.44;99423.96;1801443;79;21026;-77
2021/06/23 00:03:28;;;;;;;10.55;4.53;;;;;;;22.71;58.46;99424.48;1790786;79;21007;-78
2021/06/23 00:05:54;;;;;;;11.60;4.42;;;;;;;22.66;58.65;99416.66;1818922;79;20980;-77
2021/06/23 00:08:20;;;;;;;10.90;4.17;;;;;;;22.62;58.78;99421.59;1805426;79;21531;-78
2021/06/23 00:10:49;;;;;;;21.50;4.97;;;;;;;22.56;58.93;99419.70;1815279;79;20968;-77
2021/06/23 00:13:15;;;;;;;12.68;4.53;;;;;;;22.51;59.08;99430.23;1789537;79;21000;-76
2021/06/23 00:15:42;;;;;;;10.50;4.33;;;;;;;22.51;59.01;99425.66;1811305;79;21518;-75
2021/06/23 00:18:08;;;;;;;11.12;4.40;;;;;;;22.49;59.04;99424.19;1787746;79;21543;-77
2021/06/23 00:20:34;;;;;;;14.25;4.67;;;;;;;22.48;59.18;99423.86;1788628;79;21155;-76
2021/06/23 00:23:01;;;;;;;17.07;4.72;;;;;;;22.48;59.24;99425.20;1815635;79;21505;-76
2021/06/23 00:25:29;;;;;;;13.15;4.60;;;;;;;22.51;59.27;99424.84;1817070;79;21524;-77
2021/06/23 00:27:55;;;;;;;10.30;4.67;;;;;;;22.56;59.19;99421.87;1809261;78;21507;-76
2021/06/23 00:30:22;;;;;;;15.65;4.97;;;;;;;22.52;59.32;99423.30;1786764;80;21027;-76
2021/06/23 00:32:53;;;;;;;13.35;4.60;;;;;;;22.45;59.51;99421.05;1789855;79;21055;-76
2021/06/23 00:35:19;;;;;;;16.00;5.20;;;;;;;22.40;59.63;99412.22;1788191;79;21000;-76
2021/06/23 00:37:45;;;;;;;12.50;4.55;;;;;;;22.36;59.68;99406.87;1790104;79;21015;-77
2021/06/23 00:40:13;;;;;;;14.60;4.67;;;;;;;22.37;59.74;99400.98;1818143;79;21059;-76
2021/06/23 00:42:41;;;;;;;17.55;5.60;;;;;;;22.39;59.80;99409.19;1798105;79;21007;-76
2021/06/23 00:45:10;;;;;;;16.02;5.50;;;;;;;22.45;59.86;99413.48;1785380;79;20956;-76
2021/06/23 00:47:37;;;;;;;11.15;5.33;;;;;;;22.63;59.53;99411.66;1817474;79;22145;-76
2021/06/23 00:50:09;;;;;;;14.73;5.20;;;;;;;22.67;59.36;99409.71;1818166;79;20992;-76
2021/06/23 00:52:38;;;;;;;13.10;4.95;;;;;;;22.65;59.34;99409.59;1819428;79;20953;-76
2021/06/23 00:55:24;;;;;;;13.88;4.72;;;;;;;22.63;59.29;99414.36;1822552;79;21077;-76
2021/06/23 00:57:54;;;;;;;12.65;4.78;;;;;;;22.61;59.36;99417.26;1822658;77;20971;-76
2021/06/23 01:00:27;;;;;;;12.18;4.72;;;;;;;22.58;59.48;99414.44;1820384;79;21039;-76
2021/06/23 01:02:56;;;;;;;12.93;5.35;;;;;;;22.56;59.52;99417.01;1786103;79;21000;-77
2021/06/23 01:05:22;;;;;;;16.10;5.50;;;;;;;22.51;59.67;99416.23;1698045;83;20988;-76
2021/06/23 01:07:49;;;;;;;16.27;5.33;;;;;;;22.54;59.75;99415.01;1755760;80;21051;-76
2021/06/23 01:10:16;;;;;;;21.85;6.00;;;;;;;22.67;59.51;99416.45;1796370;79;21001;-76
2021/06/23 01:13:16;;;;;;;20.90;5.60;;;;;;;22.68;59.40;99412.73;1807279;79;21040;-76
2021/06/23 01:15:45;;;;;;;20.45;5.30;;;;;;;22.66;59.31;99406.72;1802769;79;21003;-76
2021/06/23 01:18:12;;;;;;;16.42;5.15;;;;;;;22.66;59.18;99412.11;1792814;79;21027;-77
2021/06/23 01:20:43;;;;;;;16.93;5.00;;;;;;;22.66;59.15;99411.27;1795777;79;21015;-76
2021/06/23 01:23:12;;;;;;;15.23;4.85;;;;;;;22.65;59.06;99408.24;1817975;79;20996;-76
2021/06/23 01:25:39;;;;;;;12.37;4.62;;;;;;;22.65;59.00;99409.09;1817693;79;21550;-76
2021/06/23 01:28:06;;;;;;;12.55;4.95;;;;;;;22.64;59.00;99410.11;1801210;78;20985;-76
2021/06/23 01:30:35;;;;;;;11.57;4.65;;;;;;;22.73;58.83;99415.67;1720979;83;21546;-76
2021/06/23 01:33:11;;;;;;;14.15;5.10;;;;;;;22.77;58.57;99409.91;1807059;79;21062;-77
2021/06/23 01:35:38;;;;;;;9.93;4.40;;;;;;;22.75;58.50;99413.63;1816560;79;20948;-77
2021/06/23 01:38:04;;;;;;;13.50;4.83;;;;;;;22.73;58.51;99408.11;1815378;79;20992;-75
2021/06/23 01:40:31;;;;;;;12.98;4.67;;;;;;;22.69;58.59;99410.36;1789070;79;20994;-75
2021/06/23 01:43:00;;;;;;;9.68;4.62;;;;;;;22.67;58.66;99413.75;1811852;79;21015;-75
2021/06/23 01:45:29;;;;;;;9.63;4.50;;;;;;;22.62;58.86;99409.47;1818295;79;20967;-75
2021/06/23 01:47:57;;;;;;;11.43;4.53;;;;;;;22.54;59.17;99406.92;1813320;79;20980;-75
2021/06/23 01:50:23;;;;;;;10.55;4.65;;;;;;;22.54;59.32;99406.92;1813026;79;21011;-76
2021/06/23 01:52:52;;;;;;;10.82;4.53;;;;;;;22.61;59.25;99400.23;1800118;79;20987;-76
2021/06/23 01:55:28;;;;;;;11.78;5.30;;;;;;;22.55;59.26;99410.77;1792198;79;21558;-76
2021/06/23 01:58:07;;;;;;;15.65;4.87;;;;;;;22.51;59.35;99407.33;1798891;79;21007;-76
2021/06/23 02:00:50;;;;;;;14.70;4.62;;;;;;;22.50;59.41;99405.66;1802173;79;21027;-76
2021/06/23 02:03:41;;;;;;;10.85;5.05;;;;;;;22.49;59.46;99413.41;1785623;80;21253;-76
2021/06/23 02:06:08;;;;;;;14.65;5.15;;;;;;;22.45;59.53;99411.61;1801872;79;20989;-76
2021/06/23 02:08:57;;;;;;;15.10;5.42;;;;;;;22.43;59.55;99408.30;1815733;79;21555;-76
2021/06/23 02:11:42;;;;;;;11.20;5.05;;;;;;;22.50;59.45;99414.55;1815738;79;21000;-75
2021/06/23 02:14:41;;;;;;;16.95;5.05;;;;;;;22.57;59.12;99411.91;1785779;80;21063;-75
2021/06/23 02:17:11;;;;;;;10.65;5.12;;;;;;;22.56;59.09;99413.78;1785560;79;21016;-75
2021/06/23 02:19:48;;;;;;;14.25;4.72;;;;;;;22.55;59.05;99410.77;1817913;79;20987;-75
2021/06/23 02:22:25;;;;;;;10.32;4.67;;;;;;;22.55;59.07;99420.72;1808211;79;21054;-75
2021/06/23 02:24:56;;;;;;;9.90;4.50;;;;;;;22.53;59.12;99419.58;1792351;79;21014;-75
2021/06/23 02:27:24;;;;;;;13.78;4.75;;;;;;;22.54;59.10;99421.74;1792393;79;20983;-76
2021/06/23 02:29:52;;;;;;;14.13;5.12;;;;;;;22.66;58.92;99418.84;1800507;79;20952;-75
2021/06/23 02:32:23;;;;;;;11.15;4.42;;;;;;;22.68;58.80;99414.61;1795287;79;21086;-75
2021/06/23 02:34:53;;;;;;;12.53;4.53;;;;;;;22.68;58.84;99415.95;1818301;79;21511;-75
2021/06/23 02:37:23;;;;;;;12.40;4.55;;;;;;;22.66;58.84;99424.23;1815916;79;21555;-75
2021/06/23 02:39:50;;;;;;;8.88;4.78;;;;;;;22.66;58.88;99424.23;1812642;79;21012;-75
2021/06/23 02:42:17;;;;;;;11.00;4.53;;;;;;;22.66;58.89;99422.89;1804952;79;21071;-75
2021/06/23 02:44:44;;;;;;;6.92;4.33;;;;;;;22.67;58.91;99423.72;1798323;79;20948;-75
2021/06/23 02:47:16;;;;;;;8.55;4.20;;;;;;;22.67;59.11;99423.19;1775535;80;21020;-75
2021/06/23 02:49:44;;;;;;;;;;;;;;;22.64;59.32;99417.38;1787811;79;21020;-75
2021/06/23 02:52:12;;;;;;;9.25;4.40;;;;;;;22.66;59.43;99424.23;1813588;79;20110;-75
2021/06/23 02:54:41;;;;;;;10.40;4.65;;;;;;;22.70;59.49;99423.34;1817139;79;21087;-75
2021/06/23 02:57:26;;;;;;;11.30;4.85;;;;;;;22.65;59.68;99426.61;1818194;79;20976;-75
2021/06/23 02:59:54;;;;;;;12.13;4.62;;;;;;;22.63;59.79;99427.31;1814976;79;21487;-75
2021/06/23 03:02:21;;;;;;;12.20;4.97;;;;;;;22.66;59.76;99432.33;1761258;79;21012;-75
2021/06/23 03:04:48;;;;;;;11.08;4.70;;;;;;;22.67;59.69;99431.27;1818068;79;21007;-76
2021/06/23 03:07:17;;;;;;;12.80;5.20;;;;;;;22.67;59.64;99429.92;1811000;79;21539;-75
2021/06/23 03:09:49;;;;;;;13.93;6.47;;;;;;;22.71;59.54;99425.84;1813341;79;21086;-75
2021/06/23 03:12:20;;;;;;;19.37;8.08;;;;;;;22.77;59.45;99426.08;1806257;79;21019;-75
2021/06/23 03:15:05;;;;;;;14.50;7.30;;;;;;;22.84;59.22;99426.45;1796371;79;21032;-75
2021/06/23 03:17:33;;;;;;;15.13;6.62;;;;;;;22.92;59.20;99416.03;1796999;79;21000;-75
2021/06/23 03:20:07;;;;;;;13.43;5.80;;;;;;;22.98;59.19;99417.95;1787959;79;21007;-75
2021/06/23 03:22:34;;;;;;;10.68;4.30;;;;;;;23.05;59.13;99413.94;1755607;80;21036;-75
2021/06/23 03:25:02;;;;;;;10.30;5.00;;;;;;;23.20;58.89;99415.20;1785779;80;21061;-75
2021/06/23 03:27:29;;;;;;;14.47;5.28;;;;;;;23.39;58.57;99418.52;1799084;79;21034;-75
2021/06/23 03:29:55;;;;;;;11.65;5.40;;;;;;;23.50;58.56;99418.45;1803380;79;21555;-75
2021/06/23 03:32:22;;;;;;;12.78;5.20;;;;;;;23.64;58.44;99417.17;1754960;82;21028;-76
2021/06/23 03:34:50;;;;;;;11.68;5.33;;;;;;;23.88;58.06;99419.86;1753249;81;21519;-76
2021/06/23 03:37:17;;;;;;;11.48;5.20;;;;;;;24.38;57.38;99420.39;1767415;81;22087;-76
2021/06/23 03:39:46;;;;;;;8.78;4.40;;;;;;;24.95;56.03;99424.08;1753588;82;21008;-75
2021/06/23 03:42:14;;;;;;;12.73;4.65;;;;;;;25.45;54.57;99420.02;1766644;80;21450;-76
2021/06/23 03:44:40;;;;;;;14.18;4.65;;;;;;;25.91;53.37;99419.00;1755665;81;21022;-76
2021/06/23 03:47:09;;;;;;;10.43;4.78;;;;;;;26.27;52.42;99422.16;1756516;81;21078;-76
2021/06/23 03:49:37;;;;;;;10.45;4.97;;;;;;;26.56;51.85;99423.40;1755649;82;21071;-76
2021/06/23 03:52:04;;;;;;;19.80;4.80;;;;;;;26.82;51.33;99424.25;1785329;80;21485;-76
2021/06/23 03:54:32;;;;;;;13.88;4.83;;;;;;;27.11;50.83;99436.79;1767090;81;21046;-75
2021/06/23 03:57:01;;;;;;;9.53;4.80;;;;;;;27.33;49.85;99423.63;1767497;81;21317;-75
2021/06/23 03:59:29;;;;;;;19.32;4.90;;;;;;;27.50;49.50;99427.95;1755930;81;21083;-76
2021/06/23 04:01:57;;;;;;;12.43;4.17;;;;;;;27.73;48.86;99426.42;1734321;82;21083;-76
2021/06/23 04:04:24;;;;;;;11.03;4.03;;;;;;;27.91;47.45;99422.30;1755237;82;20970;-76
2021/06/23 04:07:10;;;;;;;13.13;4.22;;;;;;;27.98;47.29;99425.45;1736870;82;21055;-75
2021/06/23 04:09:38;;;;;;;13.58;3.92;;;;;;;28.12;46.79;99414.21;1725083;82;21067;-76
2021/06/23 04:12:07;;;;;;;9.05;4.55;;;;;;;28.20;46.22;99414.41;1750878;81;21059;-76
2021/06/23 04:14:37;;;;;;;8.15;3.75;;;;;;;28.34;46.34;99415.03;1752353;82;20996;-76
2021/06/23 04:17:04;;;;;;;11.12;3.87;;;;;;;28.55;45.71;99422.34;1746894;81;21026;-75
2021/06/23 04:19:35;;;;;;;8.28;3.90;;;;;;;28.77;44.96;99412.58;1755868;81;21027;-76
2021/06/23 04:22:04;;;;;;;13.68;4.50;;;;;;;28.91;44.72;99410.45;1733537;82;20992;-76
2021/06/23 04:24:31;;;;;;;16.97;4.15;;;;;;;29.03;44.26;99405.00;1743799;81;20992;-77
2021/06/23 04:26:59;;;;;;;10.70;4.12;;;;;;;29.09;44.34;99416.30;1733987;82;21071;-76
2021/06/23 04:29:27;;;;;;;9.08;3.80;;;;;;;29.30;43.68;99415.92;1722744;82;21514;-76
2021/06/23 04:31:57;;;;;;;18.00;3.60;;;;;;;29.52;43.28;99410.69;1777698;80;21075;-76
2021/06/23 04:34:24;;;;;;;9.55;3.30;;;;;;;29.77;42.55;99406.25;1742456;82;20981;-78
2021/06/23 04:36:52;;;;;;;16.70;4.25;;;;;;;29.97;41.75;99407.77;1748931;81;21051;-77
2021/06/23 04:39:19;;;;;;;7.53;3.58;;;;;;;30.08;41.35;99406.87;1745492;81;21308;-78
2021/06/23 04:41:47;;;;;;;8.28;3.75;;;;;;;30.21;40.90;99405.74;1761586;81;21038;-78
2021/06/23 04:44:15;;;;;;;9.15;3.17;;;;;;;30.27;40.56;99402.03;1755019;81;21090;-78
2021/06/23 04:46:42;;;;;;;11.83;3.30;;;;;;;30.32;40.71;99397.19;1763187;80;21072;-78
2021/06/23 04:49:09;;;;;;;9.63;3.25;;;;;;;30.45;40.43;99405.06;1736187;82;21059;-78
2021/06/23 04:51:54;;;;;;;10.10;3.30;;;;;;;30.54;39.99;99397.33;1755091;81;21469;-78
2021/06/23 04:54:22;;;;;;;13.50;3.60;;;;;;;30.70;39.99;99391.55;1751438;81;20996;-77
2021/06/23 04:56:49;;;;;;;12.43;3.70;;;;;;;30.88;39.84;99387.20;1752651;81;21075;-78
2021/06/23 04:59:15;;;;;;;11.80;3.47;;;;;;;31.05;39.14;99394.01;1776260;80;21513;-77
2021/06/23 05:01:42;;;;;;;7.58;3.67;;;;;;;31.03;39.03;99389.84;1779898;80;21536;-77
2021/06/23 05:04:09;;;;;;;17.60;3.37;;;;;;;31.06;38.17;99394.82;1745655;81;21031;-78
2021/06/23 05:06:35;;;;;;;8.73;3.70;;;;;;;30.99;37.77;99399.63;1744723;81;21061;-77
2021/06/23 05:09:02;;;;;;;13.43;3.50;;;;;;;30.93;37.83;99400.63;1756141;82;21027;-77
2021/06/23 05:11:28;;;;;;;11.60;3.40;;;;;;;30.89;37.75;99407.94;1756844;82;21013;-77
2021/06/23 05:13:58;;;;;;;15.28;3.77;;;;;;;30.82;38.46;99392.29;1748239;82;21010;-77
2021/06/23 05:16:24;;;;;;;11.33;3.30;;;;;;;30.76;38.36;99419.22;1753708;81;21043;-77
2021/06/23 05:18:52;;;;;;;8.23;3.10;;;;;;;30.71;38.50;99417.77;1736984;82;21043;-78
2021/06/23 05:21:19;;;;;;;7.05;3.42;;;;;;;30.69;38.16;99418.55;1729691;80;21300;-77
2021/06/23 05:23:46;;;;;;;8.83;3.30;;;;;;;30.63;38.20;99423.63;1711655;82;21087;-78
2021/06/23 05:26:14;;;;;;;8.98;3.40;;;;;;;30.62;38.28;99423.36;1748982;81;21020;-76
2021/06/23 05:28:40;;;;;;;6.95;3.60;;;;;;;30.60;38.42;99419.50;1754890;81;21043;-76
2021/06/23 05:31:06;;;;;;;24.18;5.22;;;;;;;30.59;38.96;99419.75;1724964;82;21009;-78
2021/06/23 05:33:33;;;;;;;20.88;4.47;;;;;;;30.59;39.09;99419.23;1757053;81;21060;-77
2021/06/23 05:35:59;;;;;;;9.13;3.35;;;;;;;30.65;39.19;99420.13;1744590;82;20981;-77
2021/06/23 05:38:26;;;;;;;10.82;3.55;;;;;;;30.73;38.24;99418.33;1757856;82;21108;-77
2021/06/23 05:40:54;;;;;;;5.87;3.37;;;;;;;30.62;38.60;99415.18;1758194;79;20997;-81
2021/06/23 05:43:21;;;;;;;9.90;3.60;;;;;;;30.55;39.09;99413.44;1762212;81;20996;-81
2021/06/23 05:45:48;;;;;;;7.87;3.90;;;;;;;30.52;39.08;99408.46;1754027;81;21036;-79
2021/06/23 05:48:14;;;;;;;12.25;3.60;;;;;;;30.49;38.91;99399.42;1750126;82;20981;-80
2021/06/23 05:50:42;;;;;;;9.78;3.60;;;;;;;30.35;39.42;99399.44;1729410;83;21039;-79
2021/06/23 05:53:08;;;;;;;10.10;4.12;;;;;;;30.20;39.79;99396.72;1747136;82;21629;-76
2021/06/23 05:55:36;;;;;;;6.62;3.60;;;;;;;30.08;39.84;99389.16;1728121;83;21070;-78
2021/06/23 05:58:02;;;;;;;7.67;3.87;;;;;;;29.96;40.68;99381.02;1746919;82;20958;-78
2021/06/23 06:00:28;;;;;;;10.63;3.37;;;;;;;29.96;40.40;99384.30;1728224;83;21003;-78
2021/06/23 06:02:56;;;;;;;12.03;3.90;;;;;;;29.94;40.94;99385.06;1723906;82;20984;-79
2021/06/23 06:05:24;;;;;;;10.45;3.83;;;;;;;30.00;40.73;99381.36;1728083;83;21011;-79
2021/06/23 06:07:50;;;;;;;9.75;4.10;;;;;;;30.03;40.66;99374.89;1730908;80;21000;-78
2021/06/23 06:10:16;;;;;;;8.65;3.77;;;;;;;30.14;40.99;99371.82;1728014;83;21041;-78
2021/06/23 06:12:43;;;;;;;8.33;3.98;;;;;;;30.27;40.68;99369.83;1728078;83;21001;-78
2021/06/23 06:15:13;;;;;;;12.18;4.47;;;;;;;30.39;40.91;99364.58;1728046;83;21035;-79
2021/06/23 06:17:39;;;;;;;8.10;3.83;;;;;;;30.55;40.59;99364.33;1729025;81;21013;-79
2021/06/23 06:20:07;;;;;;;8.58;4.00;;;;;;;30.69;39.64;99357.14;1746989;82;21537;-80
2021/06/23 06:22:33;;;;;;;15.40;4.55;;;;;;;30.75;39.42;99362.16;1729993;81;21015;-79
2021/06/23 06:25:00;;;;;;;9.83;4.10;;;;;;;30.76;39.81;99367.36;1733678;81;20996;-80
2021/06/23 06:27:27;;;;;;;8.95;4.20;;;;;;;30.89;39.98;99361.52;1745602;81;21068;-80
2021/06/23 06:29:53;;;;;;;12.15;4.10;;;;;;;31.05;39.74;99362.61;1756840;81;21091;-80
2021/06/23 06:32:19;;;;;;;12.13;3.90;;;;;;;31.14;39.25;99355.33;1758607;81;21068;-79
2021/06/23 06:34:45;;;;;;;10.05;4.05;;;;;;;31.15;39.49;99352.89;1753594;82;21031;-80
2021/06/23 06:37:15;;;;;;;7.12;3.95;;;;;;;31.14;39.62;99356.17;1754932;82;21072;-79
2021/06/23 06:39:41;;;;;;;8.45;4.05;;;;;;;31.14;38.97;99353.96;1737263;82;21031;-88
2021/06/23 06:42:08;;;;;;;10.25;3.83;;;;;;;31.14;39.10;99352.08;1743884;81;21012;-86
2021/06/23 06:44:34;;;;;;;12.47;4.05;;;;;;;31.20;39.17;99353.80;1745735;82;20989;-87
2021/06/23 06:47:00;;;;;;;14.03;4.22;;;;;;;31.28;39.52;99354.41;1758359;81;20984;-87
2021/06/23 06:49:29;;;;;;;12.35;4.20;;;;;;;31.42;39.63;99352.12;1735474;82;21553;-87
2021/06/23 06:51:58;;;;;;;11.75;4.12;;;;;;;31.55;39.04;99346.27;1740196;82;21516;-87
2021/06/23 06:54:29;;;;;;;11.30;4.60;;;;;;;31.52;39.15;99350.34;1747584;81;21016;-86
2021/06/23 06:56:56;;;;;;;10.15;4.33;;;;;;;31.50;38.92;99344.30;1753197;81;21035;-87
2021/06/23 06:59:24;;;;;;;9.85;4.03;;;;;;;31.51;39.35;99350.58;1765659;81;21039;-87
2021/06/23 07:01:52;;;;;;;8.40;4.20;;;;;;;31.53;39.27;99350.60;1751072;81;21015;-87
2021/06/23 07:04:20;;;;;;;8.78;3.70;;;;;;;31.60;38.65;99349.06;1745027;82;21683;-88
2021/06/23 07:06:46;;;;;;;6.28;3.60;;;;;;;31.63;38.52;99355.39;1758834;81;21931;-89
2021/06/23 07:09:16;;;;;;;12.05;4.10;;;;;;;31.75;38.42;99353.06;1757262;82;21040;-91
2021/06/23 07:11:43;;;;;;;6.97;3.67;;;;;;;31.82;38.20;99353.69;1759306;81;21054;-90
2021/06/23 07:14:10;;;;;;;10.72;3.70;;;;;;;31.81;38.54;99353.40;1756445;82;21024;-91
2021/06/23 07:16:37;;;;;;;8.48;4.25;;;;;;;31.83;38.31;99357.52;1755654;82;21032;-93
2021/06/23 07:19:03;;;;;;;12.50;4.50;;;;;;;31.84;38.20;99355.08;1767849;81;20999;-90
2021/06/23 07:21:30;;;;;;;9.85;4.40;;;;;;;31.80;37.94;99359.39;1768755;81;21035;-90
2021/06/23 07:23:58;;;;;;;9.95;4.12;;;;;;;31.81;38.18;99363.78;1757350;82;20992;-91
2021/06/23 07:26:26;;;;;;;10.10;4.00;;;;;;;31.89;37.82;99354.28;1759241;81;21012;-89
2021/06/23 07:28:55;;;;;;;10.68;4.40;;;;;;;31.90;38.05;99366.06;1759890;82;21019;-89
2021/06/23 07:36:43;;;;;;;10.68;4.35;;;;;;;32.23;38.29;99373.75;1760291;81;21051;-88
2021/06/23 07:39:11;;;;;;;7.78;4.08;;;;;;;32.26;37.76;99366.41;1734687;78;20985;-88
2021/06/23 07:41:39;;;;;;;7.78;4.15;;;;;;;32.14;38.10;99360.53;1732217;83;20968;-89
2021/06/23 07:44:07;;;;;;;11.35;4.17;;;;;;;32.03;38.35;99371.09;1730338;82;20981;-86
2021/06/23 07:46:37;;;;;;;10.00;4.40;;;;;;;31.97;38.44;99370.77;1732632;81;20991;-88
2021/06/23 07:49:10;;;;;;;18.52;5.03;;;;;;;31.83;38.99;99363.52;1745621;78;21020;-86
2021/06/23 07:51:47;;;;;;;10.05;4.50;;;;;;;31.70;39.32;99363.39;1732225;83;20985;-89
2021/06/23 07:54:21;;;;;;;11.43;4.95;;;;;;;31.57;39.33;99361.04;1752959;81;21006;-91
2021/06/23 08:10:09;;;;;;;17.45;4.60;;;;;;;31.01;41.82;99368.78;1754355;75;20994;-90
2021/06/23 08:12:50;;;;;;;11.48;4.37;;;;;;;31.11;41.85;99366.22;1782441;75;20998;-90
2021/06/23 08:15:13;;;;;;;16.48;4.75;;;;;;;31.24;42.34;99370.47;1756877;75;21049;-90
2021/06/23 08:17:39;;;;;;;9.45;4.55;;;;;;;31.34;41.47;99361.59;1780602;81;21045;-91
2021/06/23 08:20:06;;;;;;;10.03;4.20;;;;;;;31.40;40.93;99364.67;1780305;81;21017;-91
2021/06/23 08:22:35;;;;;;;8.68;4.40;;;;;;;31.42;41.49;99365.26;1754777;81;21025;-91
2021/06/23 08:25:03;;;;;;;8.25;4.53;;;;;;;31.49;41.70;99369.16;1750493;81;21072;-90
2021/06/23 08:27:30;;;;;;;16.37;4.37;;;;;;;31.56;40.77;99377.14;1774638;81;21061;-90
2021/06/23 08:29:57;;;;;;;7.28;4.15;;;;;;;31.56;40.84;99374.41;1747605;82;21045;-90
2021/06/23 08:32:23;;;;;;;13.72;5.15;;;;;;;31.57;41.34;99374.70;1758189;81;21099;-91
2021/06/23 08:34:49;;;;;;;12.37;4.90;;;;;;;31.55;40.80;99379.06;1778016;81;21025;-90
2021/06/23 08:37:16;;;;;;;11.33;4.92;;;;;;;31.51;41.07;99378.74;1777874;81;21037;-91
2021/06/23 08:39:43;;;;;;;9.45;4.42;;;;;;;31.50;41.32;99371.62;1769077;81;21018;-89
2021/06/23 08:42:10;;;;;;;7.47;4.20;;;;;;;31.56;41.68;99374.41;1747362;81;21096;-90
2021/06/23 08:44:38;;;;;;;8.28;4.42;;;;;;;31.64;40.68;99381.65;1750054;81;21504;-90
2021/06/23 08:47:04;;;;;;;10.10;4.20;;;;;;;31.68;40.78;99375.14;1755714;81;21518;-90
2021/06/23 08:49:32;;;;;;;7.75;4.72;;;;;;;31.77;40.39;99377.69;1747348;82;21104;-91
2021/06/23 08:51:58;;;;;;;14.30;4.90;;;;;;;31.84;41.03;99376.11;1754308;81;21530;-91
2021/06/23 08:54:26;;;;;;;10.70;4.90;;;;;;;31.93;41.37;99373.19;1770916;81;20990;-85
2021/06/23 08:56:54;;;;;;;10.55;4.60;;;;;;;32.05;41.55;99362.11;1760304;81;21041;-84
2021/06/23 08:59:20;;;;;;;11.63;4.30;;;;;;;32.17;39.86;99362.73;1777777;81;21014;-84
2021/06/23 09:01:49;;;;;;;9.73;4.50;;;;;;;32.19;40.40;99364.72;1777960;81;21217;-84
2021/06/23 09:04:18;;;;;;;10.68;4.30;;;;;;;32.26;40.52;99367.78;1769840;81;21443;-85
2021/06/23 09:06:58;;;;;;;8.75;4.78;;;;;;;32.32;40.27;99364.00;1756898;81;21001;-84
2021/06/23 09:09:34;;;;;;;8.73;4.00;;;;;;;32.37;39.16;99363.20;1747262;82;21048;-83
2021/06/23 09:12:07;;;;;;;7.62;4.20;;;;;;;32.34;38.82;99353.61;1747303;82;21569;-86
2021/06/23 09:14:37;;;;;;;16.65;4.50;;;;;;;32.32;39.18;99359.90;1747217;81;21069;-87
2021/06/23 09:17:14;;;;;;;9.45;4.05;;;;;;;32.34;39.76;99361.28;1762263;81;21490;-86
2021/06/23 09:19:46;;;;;;;12.80;4.62;;;;;;;32.46;39.68;99355.63;1777980;81;21037;-87
2021/06/23 09:22:43;;;;;;;9.35;4.00;;;;;;;32.61;38.58;99362.28;1777706;81;21014;-85
2021/06/23 09:25:22;;;;;;;9.25;4.28;;;;;;;32.67;38.56;99363.45;1773262;81;21069;-83
2021/06/23 09:27:56;;;;;;;9.35;4.40;;;;;;;32.58;38.10;99323.14;1753176;81;21089;-84
2021/06/23 09:30:35;;;;;;;13.43;4.65;;;;;;;32.84;37.76;99359.19;1749740;82;21099;-85
2021/06/23 09:33:25;;;;;;;8.28;4.40;;;;;;;32.85;37.99;99366.84;1754480;82;21056;-84
2021/06/23 09:36:09;;;;;;;8.75;4.40;;;;;;;32.84;38.14;99363.82;1756844;80;21005;-89
2021/06/23 09:38:49;;;;;;;8.88;4.30;;;;;;;32.87;38.21;99363.84;1754677;82;21338;-89
2021/06/23 09:41:32;;;;;;;12.43;4.58;;;;;;;32.96;37.97;99367.74;1754982;82;21524;-88
2021/06/23 09:44:04;;;;;;;11.25;4.70;;;;;;;32.95;37.78;99370.20;1755523;80;21024;-89
2021/06/23 09:46:38;;;;;;;14.90;4.47;;;;;;;32.98;37.52;99376.50;1771998;80;21005;-88
2021/06/23 09:49:23;;;;;;;5.97;4.20;;;;;;;33.11;37.74;99382.88;1784818;80;20966;-88
2021/06/23 09:52:12;;;;;;;11.45;4.58;;;;;;;33.25;37.69;99385.13;1785038;80;21040;-88
2021/06/23 09:54:50;;;;;;;20.43;4.95;;;;;;;33.38;37.48;99390.69;1779903;80;21021;-86
2021/06/23 09:57:20;;;;;;;10.70;4.55;;;;;;;33.44;36.98;99391.83;1785551;80;21025;-89
2021/06/23 09:59:50;;;;;;;6.30;4.12;;;;;;;33.46;36.56;99401.15;1785743;80;21013;-89
2021/06/23 10:05:38;;;;;;;9.95;4.12;;;;;;;33.26;36.60;99390.36;1804531;79;22996;-82
2021/06/23 10:08:05;;;;;;;11.43;4.55;;;;;;;33.14;37.11;99386.45;1741560;82;21028;-79
2021/06/23 10:10:44;;;;;;;13.62;4.85;;;;;;;33.17;37.69;99387.83;1684448;81;21023;-83
2021/06/23 10:13:11;;;;;;;11.28;4.40;;;;;;;33.24;38.05;99384.84;1765701;81;21020;-80
2021/06/23 10:15:38;;;;;;;13.35;4.90;;;;;;;33.27;37.48;99385.16;1765592;78;21033;-79
2021/06/23 10:18:05;;;;;;;11.33;4.83;;;;;;;33.24;37.69;99395.27;1740973;81;21174;-79
2021/06/23 10:20:31;;;;;;;9.25;4.50;;;;;;;33.22;38.05;99393.89;1695721;83;21071;-80
2021/06/23 10:22:58;;;;;;;13.50;4.58;;;;;;;33.19;38.60;99398.52;1657585;86;21669;-79
2021/06/23 10:25:24;;;;;;;37.23;6.62;;;;;;;33.22;39.06;99400.73;1656989;86;21086;-79
2021/06/23 10:27:53;;;;;;;10.13;4.95;;;;;;;33.26;39.62;99390.89;1675296;85;21004;-80
2021/06/23 10:30:22;;;;;;;10.05;4.47;;;;;;;33.37;39.61;99388.50;1688753;85;21084;-79
2021/06/23 10:32:50;;;;;;;10.13;4.47;;;;;;;33.49;40.40;99389.11;1692035;84;20988;-78
2021/06/23 10:35:16;;;;;;;18.37;5.50;;;;;;;33.64;39.58;99382.02;1702105;84;21059;-78
2021/06/23 10:37:45;;;;;;;15.28;4.80;;;;;;;33.68;39.57;99379.00;1700908;83;21483;-79
2021/06/23 10:40:14;;;;;;;18.25;4.70;;;;;;;33.72;39.96;99382.84;1664714;85;21047;-78
2021/06/23 10:42:44;;;;;;;17.12;4.62;;;;;;;33.79;39.45;99382.05;1696736;84;21055;-76
2021/06/23 10:45:12;;;;;;;10.23;4.05;;;;;;;33.87;38.25;99389.51;1691199;84;20960;-79
2021/06/23 10:47:42;;;;;;;9.23;4.22;;;;;;;33.91;37.50;99387.30;1678369;85;20973;-78
2021/06/23 10:50:31;;;;;;;10.72;4.35;;;;;;;33.93;37.33;99385.13;1697623;84;20987;-78
2021/06/23 10:52:58;;;;;;;9.98;4.53;;;;;;;33.99;36.85;99379.09;1699461;84;21029;-78
2021/06/23 10:55:31;;;;;;;11.90;4.37;;;;;;;34.01;37.02;99379.64;1699461;84;21368;-77
2021/06/23 10:58:06;;;;;;;13.30;4.92;;;;;;;34.04;36.56;99374.97;1697577;84;20972;-77
2021/06/23 11:00:34;;;;;;;14.55;4.50;;;;;;;34.05;36.60;99368.40;1699463;84;21032;-77
2021/06/23 11:03:09;;;;;;;21.15;4.78;;;;;;;34.09;35.71;99382.39;1697665;84;21038;-78
2021/06/23 11:05:52;;;;;;;16.73;6.55;;;;;;;34.10;35.85;99378.56;1679083;83;21020;-77
2021/06/23 11:08:29;;;;;;;16.42;5.25;;;;;;;34.10;35.72;99384.05;1684567;85;21096;-78
2021/06/23 11:10:59;;;;;;;21.73;5.47;;;;;;;34.09;36.05;99380.47;1684244;85;21063;-78
2021/06/23 11:13:32;;;;;;;30.12;5.58;;;;;;;34.10;36.57;99383.48;1696629;83;21076;-77
2021/06/23 11:16:00;;;;;;;18.45;4.62;;;;;;;34.17;36.36;99383.77;1713598;83;21048;-78
2021/06/23 11:18:34;;;;;;;12.60;4.33;;;;;;;34.21;36.34;99377.47;1718315;83;21100;-78
2021/06/23 11:21:17;;;;;;;25.77;5.55;;;;;;;34.27;36.34;99386.52;1718267;82;21707;-78
2021/06/23 11:23:58;;;;;;;13.40;4.17;;;;;;;34.24;36.08;99385.14;1718430;82;21080;-77
2021/06/23 11:26:38;;;;;;;14.75;4.60;;;;;;;34.27;35.59;99392.01;1719331;82;21076;-77
2021/06/23 11:29:14;;;;;;;18.42;5.25;;;;;;;34.25;34.74;99389.55;1700039;82;21619;-77
2021/06/23 11:32:05;;;;;;;25.32;5.58;;;;;;;34.24;34.58;99392.56;1718384;83;21515;-77
2021/06/23 11:34:47;;;;;;;126.97;12.55;;;;;;;34.28;34.77;99395.84;1718436;83;21030;-78
2021/06/23 11:37:15;;;;;;;19.07;5.08;;;;;;;34.33;34.19;99404.67;1718612;83;22056;-78
2021/06/23 11:39:41;;;;;;;22.05;5.00;;;;;;;34.35;34.48;99404.39;1718851;82;21312;-78
2021/06/23 11:42:08;;;;;;;24.18;4.92;;;;;;;34.35;34.33;99398.90;1718574;82;21108;-78
2021/06/23 11:44:37;;;;;;;15.63;4.80;;;;;;;34.33;34.34;99392.84;1718825;83;21002;-78
2021/06/23 11:47:07;;;;;;;20.65;4.62;;;;;;;34.31;34.31;99399.95;1716761;82;21053;-78
2021/06/23 11:49:34;;;;;;;20.45;4.62;;;;;;;34.28;34.26;99396.41;1698885;83;21053;-78
2021/06/23 11:52:04;;;;;;;22.60;4.45;;;;;;;34.29;34.60;99393.38;1705534;82;21731;-79
2021/06/23 11:54:33;;;;;;;25.27;5.28;;;;;;;34.32;34.62;99403.55;1690579;83;20989;-80
2021/06/23 11:57:00;;;;;;;22.32;5.70;;;;;;;34.34;34.91;99400.83;1703923;83;21033;-80
2021/06/23 11:59:26;;;;;;;20.32;6.03;;;;;;;34.36;34.64;99395.88;1702748;82;21030;-80
2021/06/23 12:01:56;;;;;;;29.60;5.97;;;;;;;34.34;35.13;99399.45;1718492;82;21042;-78